sensor_id;sensor_type;location;lat;lon;timestamp;P1;durP1;ratioP1;P2;durP2;ratioP2
19111;SDS011;9688;51.906;8.376;2022-12-10T00:02:30;55.83;;;26.63;;
19111;SDS011;9688;51.906;8.376;2022-12-10T00:05:16;62.80;;;28.63;;
19111;SDS011;9688;51.906;8.376;2022-12-10T00:08:02;58.17;;;26.67;;
19111;SDS011;9688;51.906;8.376;2022-12-10T00:10:49;63.90;;;28.23;;
19111;SDS011;9688;51.906;8.376;2022-12-10T00:13:35;52.67;;;25.47;;
19111;SDS011;9688;51.906;8.376;2022-12-10T00:16:23;56.43;;;26.90;;
19111;SDS011;9688;51.906;8.376;2022-12-10T00:19:10;59.27;;;27.97;;
19111;SDS011;9688;51.906;8.376;2022-12-10T00:21:56;58.17;;;26.77;;
19111;SDS011;9688;51.906;8.376;2022-12-10T00:24:42;56.57;;;26.43;;
19111;SDS011;9688;51.906;8.376;2022-12-10T00:27:30;57.53;;;27.20;;
19111;SDS011;9688;51.906;8.376;2022-12-10T00:30:15;54.90;;;24.03;;
19111;SDS011;9688;51.906;8.376;2022-12-10T00:33:01;47.07;;;23.20;;
19111;SDS011;9688;51.906;8.376;2022-12-10T00:35:47;51.50;;;24.73;;
19111;SDS011;9688;51.906;8.376;2022-12-10T00:38:33;57.40;;;28.17;;
19111;SDS011;9688;51.906;8.376;2022-12-10T00:41:19;63.33;;;26.97;;
19111;SDS011;9688;51.906;8.376;2022-12-10T00:44:07;50.70;;;24.83;;
19111;SDS011;9688;51.906;8.376;2022-12-10T00:46:53;54.53;;;24.33;;
19111;SDS011;9688;51.906;8.376;2022-12-10T00:49:39;54.63;;;25.00;;
19111;SDS011;9688;51.906;8.376;2022-12-10T00:52:25;53.10;;;24.80;;
19111;SDS011;9688;51.906;8.376;2022-12-10T00:55:10;52.77;;;25.57;;
19111;SDS011;9688;51.906;8.376;2022-12-10T00:57:56;51.40;;;24.90;;
19111;SDS011;9688;51.906;8.376;2022-12-10T01:00:43;51.57;;;24.77;;
19111;SDS011;9688;51.906;8.376;2022-12-10T01:03:28;45.37;;;22.97;;
19111;SDS011;9688;51.906;8.376;2022-12-10T01:06:15;49.43;;;23.00;;
19111;SDS011;9688;51.906;8.376;2022-12-10T01:09:05;51.80;;;24.17;;
19111;SDS011;9688;51.906;8.376;2022-12-10T01:11:52;46.47;;;22.70;;
19111;SDS011;9688;51.906;8.376;2022-12-10T01:14:39;47.63;;;22.53;;
19111;SDS011;9688;51.906;8.376;2022-12-10T01:17:26;48.60;;;23.17;;
19111;SDS011;9688;51.906;8.376;2022-12-10T01:20:17;47.20;;;22.87;;
19111;SDS011;9688;51.906;8.376;2022-12-10T01:23:04;47.93;;;24.03;;
19111;SDS011;9688;51.906;8.376;2022-12-10T01:25:49;50.30;;;24.57;;
19111;SDS011;9688;51.906;8.376;2022-12-10T01:28:37;61.50;;;25.20;;
19111;SDS011;9688;51.906;8.376;2022-12-10T01:31:27;44.57;;;22.80;;
19111;SDS011;9688;51.906;8.376;2022-12-10T01:34:16;47.77;;;22.97;;
19111;SDS011;9688;51.906;8.376;2022-12-10T01:37:02;48.17;;;23.57;;
19111;SDS011;9688;51.906;8.376;2022-12-10T01:39:48;46.77;;;23.50;;
19111;SDS011;9688;51.906;8.376;2022-12-10T01:42:34;47.73;;;22.70;;
19111;SDS011;9688;51.906;8.376;2022-12-10T01:45:20;48.70;;;23.50;;
19111;SDS011;9688;51.906;8.376;2022-12-10T01:48:06;50.40;;;24.33;;
19111;SDS011;9688;51.906;8.376;2022-12-10T01:50:54;51.57;;;25.37;;
19111;SDS011;9688;51.906;8.376;2022-12-10T01:53:40;41.77;;;21.73;;
19111;SDS011;9688;51.906;8.376;2022-12-10T01:56:26;41.10;;;22.23;;
19111;SDS011;9688;51.906;8.376;2022-12-10T01:59:21;44.60;;;22.30;;
19111;SDS011;9688;51.906;8.376;2022-12-10T02:02:11;44.13;;;21.90;;
19111;SDS011;9688;51.906;8.376;2022-12-10T02:05:05;41.03;;;21.13;;
19111;SDS011;9688;51.906;8.376;2022-12-10T02:08:02;45.63;;;21.17;;
19111;SDS011;9688;51.906;8.376;2022-12-10T02:10:58;46.07;;;21.33;;
19111;SDS011;9688;51.906;8.376;2022-12-10T02:13:52;51.07;;;23.53;;
19111;SDS011;9688;51.906;8.376;2022-12-10T02:16:44;48.10;;;23.77;;
19111;SDS011;9688;51.906;8.376;2022-12-10T02:19:41;50.27;;;23.37;;
19111;SDS011;9688;51.906;8.376;2022-12-10T02:22:50;48.63;;;21.70;;
19111;SDS011;9688;51.906;8.376;2022-12-10T02:25:43;51.53;;;24.50;;
19111;SDS011;9688;51.906;8.376;2022-12-10T02:28:36;49.13;;;24.37;;
19111;SDS011;9688;51.906;8.376;2022-12-10T02:31:26;55.90;;;26.57;;
19111;SDS011;9688;51.906;8.376;2022-12-10T02:34:15;52.13;;;24.87;;
19111;SDS011;9688;51.906;8.376;2022-12-10T02:37:04;51.93;;;26.60;;
19111;SDS011;9688;51.906;8.376;2022-12-10T02:39:54;52.03;;;25.90;;
19111;SDS011;9688;51.906;8.376;2022-12-10T02:42:43;53.97;;;26.20;;
19111;SDS011;9688;51.906;8.376;2022-12-10T02:45:33;52.57;;;24.67;;
19111;SDS011;9688;51.906;8.376;2022-12-10T02:48:21;55.13;;;26.33;;
19111;SDS011;9688;51.906;8.376;2022-12-10T02:51:08;61.47;;;28.90;;
19111;SDS011;9688;51.906;8.376;2022-12-10T02:54:00;54.03;;;26.17;;
19111;SDS011;9688;51.906;8.376;2022-12-10T02:56:48;49.80;;;26.10;;
19111;SDS011;9688;51.906;8.376;2022-12-10T02:59:43;57.73;;;28.77;;
19111;SDS011;9688;51.906;8.376;2022-12-10T03:02:41;53.40;;;26.83;;
19111;SDS011;9688;51.906;8.376;2022-12-10T03:05:42;51.80;;;27.20;;
19111;SDS011;9688;51.906;8.376;2022-12-10T03:08:34;54.93;;;25.13;;
19111;SDS011;9688;51.906;8.376;2022-12-10T03:11:23;53.00;;;24.17;;
19111;SDS011;9688;51.906;8.376;2022-12-10T03:14:10;46.63;;;22.90;;
19111;SDS011;9688;51.906;8.376;2022-12-10T03:17:00;53.50;;;25.30;;
19111;SDS011;9688;51.906;8.376;2022-12-10T03:19:48;49.40;;;24.90;;
19111;SDS011;9688;51.906;8.376;2022-12-10T03:22:38;46.87;;;22.30;;
19111;SDS011;9688;51.906;8.376;2022-12-10T03:25:27;44.93;;;22.53;;
19111;SDS011;9688;51.906;8.376;2022-12-10T03:28:18;44.97;;;22.63;;
19111;SDS011;9688;51.906;8.376;2022-12-10T03:31:06;48.30;;;23.80;;
19111;SDS011;9688;51.906;8.376;2022-12-10T03:33:54;55.33;;;26.43;;
19111;SDS011;9688;51.906;8.376;2022-12-10T03:36:41;51.23;;;24.60;;
19111;SDS011;9688;51.906;8.376;2022-12-10T03:39:30;52.70;;;24.17;;
19111;SDS011;9688;51.906;8.376;2022-12-10T03:42:17;51.70;;;24.07;;
19111;SDS011;9688;51.906;8.376;2022-12-10T03:45:03;46.80;;;23.90;;
19111;SDS011;9688;51.906;8.376;2022-12-10T03:47:49;45.90;;;23.53;;
19111;SDS011;9688;51.906;8.376;2022-12-10T03:50:35;48.90;;;23.73;;
19111;SDS011;9688;51.906;8.376;2022-12-10T03:53:21;52.53;;;24.60;;
19111;SDS011;9688;51.906;8.376;2022-12-10T03:56:08;51.10;;;23.33;;
19111;SDS011;9688;51.906;8.376;2022-12-10T03:58:54;52.33;;;24.60;;
19111;SDS011;9688;51.906;8.376;2022-12-10T04:01:41;49.60;;;23.30;;
19111;SDS011;9688;51.906;8.376;2022-12-10T04:04:26;53.50;;;25.23;;
19111;SDS011;9688;51.906;8.376;2022-12-10T04:07:12;48.33;;;23.90;;
19111;SDS011;9688;51.906;8.376;2022-12-10T04:09:58;53.87;;;24.07;;
19111;SDS011;9688;51.906;8.376;2022-12-10T04:12:45;50.57;;;24.47;;
19111;SDS011;9688;51.906;8.376;2022-12-10T04:15:50;50.83;;;24.30;;
19111;SDS011;9688;51.906;8.376;2022-12-10T04:18:55;46.00;;;23.57;;
19111;SDS011;9688;51.906;8.376;2022-12-10T04:21:42;48.80;;;23.90;;
19111;SDS011;9688;51.906;8.376;2022-12-10T04:24:46;47.83;;;23.13;;
19111;SDS011;9688;51.906;8.376;2022-12-10T04:27:51;52.13;;;25.17;;
19111;SDS011;9688;51.906;8.376;2022-12-10T04:30:36;54.10;;;26.50;;
19111;SDS011;9688;51.906;8.376;2022-12-10T04:33:22;51.13;;;24.13;;
19111;SDS011;9688;51.906;8.376;2022-12-10T04:36:07;48.87;;;23.60;;
19111;SDS011;9688;51.906;8.376;2022-12-10T04:38:53;50.30;;;24.03;;
19111;SDS011;9688;51.906;8.376;2022-12-10T04:41:39;46.57;;;23.67;;
19111;SDS011;9688;51.906;8.376;2022-12-10T04:44:28;48.27;;;24.77;;
19111;SDS011;9688;51.906;8.376;2022-12-10T04:47:14;46.90;;;23.20;;
19111;SDS011;9688;51.906;8.376;2022-12-10T04:50:00;47.80;;;23.17;;
19111;SDS011;9688;51.906;8.376;2022-12-10T04:52:49;48.23;;;24.07;;
19111;SDS011;9688;51.906;8.376;2022-12-10T04:55:35;45.77;;;22.93;;
19111;SDS011;9688;51.906;8.376;2022-12-10T04:58:21;51.47;;;24.33;;
19111;SDS011;9688;51.906;8.376;2022-12-10T05:01:09;48.63;;;23.53;;
19111;SDS011;9688;51.906;8.376;2022-12-10T05:03:58;45.73;;;23.50;;
19111;SDS011;9688;51.906;8.376;2022-12-10T05:06:45;45.40;;;23.23;;
19111;SDS011;9688;51.906;8.376;2022-12-10T05:09:33;42.37;;;21.30;;
19111;SDS011;9688;51.906;8.376;2022-12-10T05:12:18;49.17;;;23.20;;
19111;SDS011;9688;51.906;8.376;2022-12-10T05:15:05;42.40;;;22.47;;
19111;SDS011;9688;51.906;8.376;2022-12-10T05:17:53;48.40;;;24.07;;
19111;SDS011;9688;51.906;8.376;2022-12-10T05:20:39;41.10;;;21.20;;
19111;SDS011;9688;51.906;8.376;2022-12-10T05:23:24;46.40;;;22.40;;
19111;SDS011;9688;51.906;8.376;2022-12-10T05:26:13;44.20;;;22.23;;
19111;SDS011;9688;51.906;8.376;2022-12-10T05:29:00;45.73;;;22.67;;
19111;SDS011;9688;51.906;8.376;2022-12-10T05:31:46;49.83;;;24.07;;
19111;SDS011;9688;51.906;8.376;2022-12-10T05:34:33;46.67;;;23.57;;
19111;SDS011;9688;51.906;8.376;2022-12-10T05:37:19;46.40;;;22.87;;
19111;SDS011;9688;51.906;8.376;2022-12-10T05:40:06;41.93;;;20.77;;
19111;SDS011;9688;51.906;8.376;2022-12-10T05:42:52;45.87;;;22.17;;
19111;SDS011;9688;51.906;8.376;2022-12-10T05:45:38;42.73;;;21.57;;
19111;SDS011;9688;51.906;8.376;2022-12-10T05:48:24;44.90;;;21.97;;
19111;SDS011;9688;51.906;8.376;2022-12-10T05:51:12;44.63;;;21.40;;
19111;SDS011;9688;51.906;8.376;2022-12-10T05:54:00;44.40;;;22.00;;
19111;SDS011;9688;51.906;8.376;2022-12-10T05:56:47;43.67;;;23.10;;
19111;SDS011;9688;51.906;8.376;2022-12-10T05:59:33;45.83;;;22.83;;
19111;SDS011;9688;51.906;8.376;2022-12-10T06:02:20;46.67;;;22.33;;
19111;SDS011;9688;51.906;8.376;2022-12-10T06:05:06;40.40;;;21.60;;
19111;SDS011;9688;51.906;8.376;2022-12-10T06:07:53;46.33;;;22.40;;
19111;SDS011;9688;51.906;8.376;2022-12-10T06:10:40;38.83;;;21.10;;
19111;SDS011;9688;51.906;8.376;2022-12-10T06:13:26;41.27;;;21.27;;
19111;SDS011;9688;51.906;8.376;2022-12-10T06:16:12;41.13;;;22.00;;
19111;SDS011;9688;51.906;8.376;2022-12-10T06:18:59;45.37;;;21.80;;
19111;SDS011;9688;51.906;8.376;2022-12-10T06:21:44;46.70;;;22.20;;
19111;SDS011;9688;51.906;8.376;2022-12-10T06:24:31;40.67;;;20.57;;
19111;SDS011;9688;51.906;8.376;2022-12-10T06:27:17;33.87;;;19.53;;
19111;SDS011;9688;51.906;8.376;2022-12-10T06:30:05;36.33;;;20.47;;
19111;SDS011;9688;51.906;8.376;2022-12-10T06:32:51;42.47;;;21.10;;
19111;SDS011;9688;51.906;8.376;2022-12-10T06:35:37;39.23;;;19.80;;
19111;SDS011;9688;51.906;8.376;2022-12-10T06:38:23;43.23;;;22.20;;
19111;SDS011;9688;51.906;8.376;2022-12-10T06:41:11;40.10;;;20.90;;
19111;SDS011;9688;51.906;8.376;2022-12-10T06:43:57;41.30;;;22.07;;
19111;SDS011;9688;51.906;8.376;2022-12-10T06:46:43;38.57;;;20.27;;
19111;SDS011;9688;51.906;8.376;2022-12-10T06:49:29;40.90;;;20.80;;
19111;SDS011;9688;51.906;8.376;2022-12-10T06:52:15;39.63;;;21.03;;
19111;SDS011;9688;51.906;8.376;2022-12-10T06:55:01;44.43;;;22.03;;
19111;SDS011;9688;51.906;8.376;2022-12-10T06:57:51;42.63;;;21.30;;
19111;SDS011;9688;51.906;8.376;2022-12-10T07:00:37;41.50;;;21.37;;
19111;SDS011;9688;51.906;8.376;2022-12-10T07:03:23;39.37;;;20.37;;
19111;SDS011;9688;51.906;8.376;2022-12-10T07:06:10;41.10;;;21.50;;
19111;SDS011;9688;51.906;8.376;2022-12-10T07:08:56;37.77;;;19.43;;
19111;SDS011;9688;51.906;8.376;2022-12-10T07:11:42;38.37;;;21.23;;
19111;SDS011;9688;51.906;8.376;2022-12-10T07:14:30;41.93;;;20.33;;
19111;SDS011;9688;51.906;8.376;2022-12-10T07:17:15;39.87;;;20.90;;
19111;SDS011;9688;51.906;8.376;2022-12-10T07:20:05;41.73;;;21.37;;
19111;SDS011;9688;51.906;8.376;2022-12-10T07:22:51;44.07;;;20.33;;
19111;SDS011;9688;51.906;8.376;2022-12-10T07:25:37;39.17;;;20.83;;
19111;SDS011;9688;51.906;8.376;2022-12-10T07:28:23;44.43;;;21.17;;
19111;SDS011;9688;51.906;8.376;2022-12-10T07:31:10;43.93;;;21.70;;
19111;SDS011;9688;51.906;8.376;2022-12-10T07:33:57;56.27;;;23.97;;
19111;SDS011;9688;51.906;8.376;2022-12-10T07:36:44;42.73;;;21.17;;
19111;SDS011;9688;51.906;8.376;2022-12-10T07:39:30;42.57;;;21.77;;
19111;SDS011;9688;51.906;8.376;2022-12-10T07:42:16;40.87;;;21.03;;
19111;SDS011;9688;51.906;8.376;2022-12-10T07:45:02;44.97;;;21.20;;
19111;SDS011;9688;51.906;8.376;2022-12-10T07:47:50;43.00;;;20.97;;
19111;SDS011;9688;51.906;8.376;2022-12-10T07:50:36;41.63;;;20.00;;
19111;SDS011;9688;51.906;8.376;2022-12-10T07:53:22;39.90;;;20.87;;
19111;SDS011;9688;51.906;8.376;2022-12-10T07:56:08;47.87;;;21.50;;
19111;SDS011;9688;51.906;8.376;2022-12-10T07:58:54;44.30;;;21.50;;
19111;SDS011;9688;51.906;8.376;2022-12-10T08:01:40;44.93;;;21.27;;
19111;SDS011;9688;51.906;8.376;2022-12-10T08:04:28;43.00;;;21.47;;
19111;SDS011;9688;51.906;8.376;2022-12-10T08:07:14;40.20;;;21.07;;
19111;SDS011;9688;51.906;8.376;2022-12-10T08:13:10;40.00;;;19.80;;
19111;SDS011;9688;51.906;8.376;2022-12-10T08:16:00;43.90;;;20.67;;
19111;SDS011;9688;51.906;8.376;2022-12-10T08:18:46;40.83;;;20.27;;
19111;SDS011;9688;51.906;8.376;2022-12-10T08:21:33;40.97;;;20.27;;
19111;SDS011;9688;51.906;8.376;2022-12-10T08:24:19;40.97;;;19.17;;
19111;SDS011;9688;51.906;8.376;2022-12-10T08:27:06;42.57;;;20.57;;
19111;SDS011;9688;51.906;8.376;2022-12-10T08:29:52;37.37;;;19.20;;
19111;SDS011;9688;51.906;8.376;2022-12-10T08:32:39;38.67;;;19.70;;
19111;SDS011;9688;51.906;8.376;2022-12-10T08:35:25;40.17;;;19.40;;
19111;SDS011;9688;51.906;8.376;2022-12-10T08:38:12;40.57;;;20.40;;
19111;SDS011;9688;51.906;8.376;2022-12-10T08:40:58;36.10;;;18.53;;
19111;SDS011;9688;51.906;8.376;2022-12-10T08:43:44;35.70;;;17.87;;
19111;SDS011;9688;51.906;8.376;2022-12-10T08:46:30;43.17;;;19.63;;
19111;SDS011;9688;51.906;8.376;2022-12-10T08:49:16;40.30;;;20.40;;
19111;SDS011;9688;51.906;8.376;2022-12-10T08:52:02;38.03;;;18.73;;
19111;SDS011;9688;51.906;8.376;2022-12-10T08:54:49;35.60;;;18.03;;
19111;SDS011;9688;51.906;8.376;2022-12-10T08:57:36;40.20;;;19.67;;
19111;SDS011;9688;51.906;8.376;2022-12-10T09:00:22;35.53;;;18.50;;
19111;SDS011;9688;51.906;8.376;2022-12-10T09:03:11;34.83;;;17.63;;
19111;SDS011;9688;51.906;8.376;2022-12-10T09:06:01;36.93;;;19.33;;
19111;SDS011;9688;51.906;8.376;2022-12-10T09:08:47;42.07;;;19.63;;
19111;SDS011;9688;51.906;8.376;2022-12-10T09:11:35;38.70;;;20.07;;
19111;SDS011;9688;51.906;8.376;2022-12-10T09:14:21;35.73;;;19.13;;
19111;SDS011;9688;51.906;8.376;2022-12-10T09:17:08;36.67;;;18.40;;
19111;SDS011;9688;51.906;8.376;2022-12-10T09:19:53;44.13;;;20.53;;
19111;SDS011;9688;51.906;8.376;2022-12-10T09:22:39;42.03;;;19.50;;
19111;SDS011;9688;51.906;8.376;2022-12-10T09:25:25;35.87;;;19.70;;
19111;SDS011;9688;51.906;8.376;2022-12-10T09:28:13;37.37;;;19.53;;
19111;SDS011;9688;51.906;8.376;2022-12-10T09:31:03;38.37;;;19.67;;
19111;SDS011;9688;51.906;8.376;2022-12-10T09:33:51;36.97;;;19.10;;
19111;SDS011;9688;51.906;8.376;2022-12-10T09:36:39;37.33;;;18.40;;
19111;SDS011;9688;51.906;8.376;2022-12-10T09:39:25;35.07;;;18.03;;
19111;SDS011;9688;51.906;8.376;2022-12-10T09:42:14;39.20;;;18.60;;
19111;SDS011;9688;51.906;8.376;2022-12-10T09:45:13;35.73;;;18.57;;
19111;SDS011;9688;51.906;8.376;2022-12-10T09:48:04;35.17;;;19.00;;
19111;SDS011;9688;51.906;8.376;2022-12-10T09:51:03;33.03;;;17.23;;
19111;SDS011;9688;51.906;8.376;2022-12-10T09:53:55;43.73;;;18.13;;
19111;SDS011;9688;51.906;8.376;2022-12-10T09:56:43;40.20;;;19.73;;
19111;SDS011;9688;51.906;8.376;2022-12-10T09:59:32;38.70;;;18.57;;
19111;SDS011;9688;51.906;8.376;2022-12-10T10:02:25;36.50;;;18.90;;
19111;SDS011;9688;51.906;8.376;2022-12-10T10:05:16;36.90;;;18.63;;
19111;SDS011;9688;51.906;8.376;2022-12-10T10:08:05;34.60;;;18.63;;
19111;SDS011;9688;51.906;8.376;2022-12-10T10:10:58;41.73;;;18.53;;
19111;SDS011;9688;51.906;8.376;2022-12-10T10:13:44;34.17;;;18.37;;
19111;SDS011;9688;51.906;8.376;2022-12-10T10:16:36;35.93;;;18.63;;
19111;SDS011;9688;51.906;8.376;2022-12-10T10:19:31;38.87;;;19.17;;
19111;SDS011;9688;51.906;8.376;2022-12-10T10:22:21;37.43;;;18.00;;
19111;SDS011;9688;51.906;8.376;2022-12-10T10:25:08;36.03;;;18.43;;
19111;SDS011;9688;51.906;8.376;2022-12-10T10:27:59;38.60;;;19.23;;
19111;SDS011;9688;51.906;8.376;2022-12-10T10:30:45;36.40;;;18.30;;
19111;SDS011;9688;51.906;8.376;2022-12-10T10:33:31;33.20;;;18.23;;
19111;SDS011;9688;51.906;8.376;2022-12-10T10:36:42;34.40;;;18.70;;
19111;SDS011;9688;51.906;8.376;2022-12-10T10:39:29;31.80;;;16.97;;
19111;SDS011;9688;51.906;8.376;2022-12-10T10:42:26;34.97;;;17.57;;
19111;SDS011;9688;51.906;8.376;2022-12-10T10:45:39;34.00;;;17.13;;
19111;SDS011;9688;51.906;8.376;2022-12-10T10:48:26;31.37;;;16.93;;
19111;SDS011;9688;51.906;8.376;2022-12-10T10:51:15;38.13;;;17.37;;
19111;SDS011;9688;51.906;8.376;2022-12-10T10:54:06;30.37;;;16.60;;
19111;SDS011;9688;51.906;8.376;2022-12-10T10:56:53;31.97;;;17.47;;
19111;SDS011;9688;51.906;8.376;2022-12-10T10:59:40;34.37;;;17.13;;
19111;SDS011;9688;51.906;8.376;2022-12-10T11:02:32;31.03;;;15.60;;
19111;SDS011;9688;51.906;8.376;2022-12-10T11:05:23;34.47;;;16.90;;
19111;SDS011;9688;51.906;8.376;2022-12-10T11:08:13;27.00;;;15.57;;
19111;SDS011;9688;51.906;8.376;2022-12-10T11:11:04;27.93;;;15.53;;
19111;SDS011;9688;51.906;8.376;2022-12-10T11:13:51;31.10;;;15.80;;
19111;SDS011;9688;51.906;8.376;2022-12-10T11:16:37;26.23;;;14.87;;
19111;SDS011;9688;51.906;8.376;2022-12-10T11:19:25;30.23;;;16.10;;
19111;SDS011;9688;51.906;8.376;2022-12-10T11:22:16;30.27;;;15.93;;
19111;SDS011;9688;51.906;8.376;2022-12-10T11:25:10;27.93;;;15.87;;
19111;SDS011;9688;51.906;8.376;2022-12-10T11:27:59;27.57;;;15.63;;
19111;SDS011;9688;51.906;8.376;2022-12-10T11:30:50;22.07;;;13.00;;
19111;SDS011;9688;51.906;8.376;2022-12-10T11:33:47;31.67;;;15.93;;
19111;SDS011;9688;51.906;8.376;2022-12-10T11:36:53;23.70;;;13.40;;
19111;SDS011;9688;51.906;8.376;2022-12-10T11:39:53;22.87;;;12.60;;
19111;SDS011;9688;51.906;8.376;2022-12-10T11:42:54;24.60;;;13.50;;
19111;SDS011;9688;51.906;8.376;2022-12-10T11:45:56;26.57;;;15.10;;
19111;SDS011;9688;51.906;8.376;2022-12-10T11:49:03;24.57;;;13.60;;
19111;SDS011;9688;51.906;8.376;2022-12-10T11:52:05;20.97;;;12.17;;
19111;SDS011;9688;51.906;8.376;2022-12-10T11:55:02;20.30;;;12.43;;
19111;SDS011;9688;51.906;8.376;2022-12-10T11:58:17;21.57;;;13.30;;
19111;SDS011;9688;51.906;8.376;2022-12-10T12:01:27;21.10;;;12.77;;
19111;SDS011;9688;51.906;8.376;2022-12-10T12:04:23;16.50;;;10.27;;
19111;SDS011;9688;51.906;8.376;2022-12-10T12:07:20;21.30;;;11.70;;
19111;SDS011;9688;51.906;8.376;2022-12-10T12:10:32;22.03;;;12.90;;
19111;SDS011;9688;51.906;8.376;2022-12-10T12:13:31;19.57;;;12.03;;
19111;SDS011;9688;51.906;8.376;2022-12-10T12:16:23;19.27;;;11.63;;
19111;SDS011;9688;51.906;8.376;2022-12-10T12:19:19;20.47;;;11.20;;
19111;SDS011;9688;51.906;8.376;2022-12-10T12:22:13;19.73;;;11.13;;
19111;SDS011;9688;51.906;8.376;2022-12-10T12:25:02;18.17;;;11.27;;
19111;SDS011;9688;51.906;8.376;2022-12-10T12:27:53;19.43;;;11.30;;
19111;SDS011;9688;51.906;8.376;2022-12-10T12:30:48;19.03;;;10.53;;
19111;SDS011;9688;51.906;8.376;2022-12-10T12:33:43;20.27;;;10.80;;
19111;SDS011;9688;51.906;8.376;2022-12-10T12:36:36;19.47;;;11.73;;
19111;SDS011;9688;51.906;8.376;2022-12-10T12:39:23;17.33;;;11.10;;
19111;SDS011;9688;51.906;8.376;2022-12-10T12:42:20;21.00;;;12.27;;
19111;SDS011;9688;51.906;8.376;2022-12-10T12:45:13;20.07;;;12.23;;
19111;SDS011;9688;51.906;8.376;2022-12-10T12:48:09;22.93;;;12.27;;
19111;SDS011;9688;51.906;8.376;2022-12-10T12:51:05;20.23;;;11.97;;
19111;SDS011;9688;51.906;8.376;2022-12-10T12:53:55;18.23;;;11.23;;
19111;SDS011;9688;51.906;8.376;2022-12-10T12:56:47;19.43;;;11.73;;
19111;SDS011;9688;51.906;8.376;2022-12-10T12:59:52;17.97;;;11.23;;
19111;SDS011;9688;51.906;8.376;2022-12-10T13:02:44;18.90;;;11.07;;
19111;SDS011;9688;51.906;8.376;2022-12-10T13:05:38;17.93;;;10.77;;
19111;SDS011;9688;51.906;8.376;2022-12-10T13:08:30;19.47;;;11.60;;
19111;SDS011;9688;51.906;8.376;2022-12-10T13:11:30;18.40;;;10.20;;
19111;SDS011;9688;51.906;8.376;2022-12-10T13:14:31;20.30;;;11.47;;
19111;SDS011;9688;51.906;8.376;2022-12-10T13:17:26;19.30;;;11.23;;
19111;SDS011;9688;51.906;8.376;2022-12-10T13:20:28;20.27;;;11.50;;
19111;SDS011;9688;51.906;8.376;2022-12-10T13:23:30;17.63;;;11.10;;
19111;SDS011;9688;51.906;8.376;2022-12-10T13:26:25;21.73;;;11.83;;
19111;SDS011;9688;51.906;8.376;2022-12-10T13:29:23;19.17;;;10.93;;
19111;SDS011;9688;51.906;8.376;2022-12-10T13:32:14;21.53;;;12.30;;
19111;SDS011;9688;51.906;8.376;2022-12-10T13:35:15;19.27;;;12.10;;
19111;SDS011;9688;51.906;8.376;2022-12-10T13:38:17;18.67;;;10.97;;
19111;SDS011;9688;51.906;8.376;2022-12-10T13:41:06;20.50;;;11.53;;
19111;SDS011;9688;51.906;8.376;2022-12-10T13:44:25;21.73;;;12.60;;
19111;SDS011;9688;51.906;8.376;2022-12-10T13:47:24;20.40;;;12.13;;
19111;SDS011;9688;51.906;8.376;2022-12-10T13:50:17;24.43;;;12.70;;
19111;SDS011;9688;51.906;8.376;2022-12-10T13:53:08;20.90;;;12.07;;
19111;SDS011;9688;51.906;8.376;2022-12-10T13:56:04;23.27;;;12.20;;
19111;SDS011;9688;51.906;8.376;2022-12-10T13:59:06;25.83;;;12.80;;
19111;SDS011;9688;51.906;8.376;2022-12-10T14:02:21;23.17;;;12.93;;
19111;SDS011;9688;51.906;8.376;2022-12-10T14:05:27;22.83;;;12.77;;
19111;SDS011;9688;51.906;8.376;2022-12-10T14:08:26;22.67;;;12.50;;
19111;SDS011;9688;51.906;8.376;2022-12-10T14:11:17;25.60;;;13.27;;
19111;SDS011;9688;51.906;8.376;2022-12-10T14:14:10;26.50;;;13.87;;
19111;SDS011;9688;51.906;8.376;2022-12-10T14:16:59;27.00;;;13.57;;
19111;SDS011;9688;51.906;8.376;2022-12-10T14:19:48;24.47;;;14.20;;
19111;SDS011;9688;51.906;8.376;2022-12-10T14:22:43;28.77;;;13.87;;
19111;SDS011;9688;51.906;8.376;2022-12-10T14:25:31;25.77;;;14.17;;
19111;SDS011;9688;51.906;8.376;2022-12-10T14:28:30;24.43;;;13.30;;
19111;SDS011;9688;51.906;8.376;2022-12-10T14:31:18;24.70;;;12.93;;
19111;SDS011;9688;51.906;8.376;2022-12-10T14:34:08;21.00;;;12.93;;
19111;SDS011;9688;51.906;8.376;2022-12-10T14:37:00;25.37;;;13.90;;
19111;SDS011;9688;51.906;8.376;2022-12-10T14:39:48;24.30;;;14.20;;
19111;SDS011;9688;51.906;8.376;2022-12-10T14:42:37;24.27;;;13.93;;
19111;SDS011;9688;51.906;8.376;2022-12-10T14:45:26;21.67;;;13.00;;
19111;SDS011;9688;51.906;8.376;2022-12-10T14:48:15;24.07;;;14.97;;
19111;SDS011;9688;51.906;8.376;2022-12-10T14:51:12;23.00;;;13.57;;
19111;SDS011;9688;51.906;8.376;2022-12-10T14:54:01;24.70;;;13.47;;
19111;SDS011;9688;51.906;8.376;2022-12-10T14:56:47;29.67;;;15.77;;
19111;SDS011;9688;51.906;8.376;2022-12-10T14:59:35;26.90;;;14.33;;
19111;SDS011;9688;51.906;8.376;2022-12-10T15:02:27;27.80;;;14.13;;
19111;SDS011;9688;51.906;8.376;2022-12-10T15:05:17;28.53;;;14.30;;
19111;SDS011;9688;51.906;8.376;2022-12-10T15:08:06;25.60;;;14.43;;
19111;SDS011;9688;51.906;8.376;2022-12-10T15:10:59;23.33;;;13.57;;
19111;SDS011;9688;51.906;8.376;2022-12-10T15:13:47;27.17;;;14.53;;
19111;SDS011;9688;51.906;8.376;2022-12-10T15:16:38;26.13;;;13.70;;
19111;SDS011;9688;51.906;8.376;2022-12-10T15:19:32;25.50;;;14.37;;
19111;SDS011;9688;51.906;8.376;2022-12-10T15:22:20;29.43;;;14.20;;
19111;SDS011;9688;51.906;8.376;2022-12-10T15:25:12;23.20;;;13.27;;
19111;SDS011;9688;51.906;8.376;2022-12-10T15:28:21;25.17;;;13.63;;
19111;SDS011;9688;51.906;8.376;2022-12-10T15:31:15;24.63;;;13.80;;
19111;SDS011;9688;51.906;8.376;2022-12-10T15:34:06;25.00;;;13.90;;
19111;SDS011;9688;51.906;8.376;2022-12-10T15:36:56;23.17;;;13.30;;
19111;SDS011;9688;51.906;8.376;2022-12-10T15:39:47;23.60;;;13.63;;
19111;SDS011;9688;51.906;8.376;2022-12-10T15:42:37;22.40;;;13.17;;
19111;SDS011;9688;51.906;8.376;2022-12-10T15:45:25;27.10;;;14.67;;
19111;SDS011;9688;51.906;8.376;2022-12-10T15:48:12;24.57;;;14.57;;
19111;SDS011;9688;51.906;8.376;2022-12-10T15:50:58;25.13;;;14.43;;
19111;SDS011;9688;51.906;8.376;2022-12-10T15:53:48;25.03;;;13.83;;
19111;SDS011;9688;51.906;8.376;2022-12-10T15:56:35;25.83;;;13.67;;
19111;SDS011;9688;51.906;8.376;2022-12-10T15:59:21;29.20;;;14.30;;
19111;SDS011;9688;51.906;8.376;2022-12-10T16:02:10;23.83;;;13.87;;
19111;SDS011;9688;51.906;8.376;2022-12-10T16:05:12;23.30;;;13.57;;
19111;SDS011;9688;51.906;8.376;2022-12-10T16:08:01;30.47;;;15.63;;
19111;SDS011;9688;51.906;8.376;2022-12-10T16:11:00;27.63;;;14.50;;
19111;SDS011;9688;51.906;8.376;2022-12-10T16:13:52;27.27;;;14.17;;
19111;SDS011;9688;51.906;8.376;2022-12-10T16:16:40;26.13;;;14.33;;
19111;SDS011;9688;51.906;8.376;2022-12-10T16:19:27;27.20;;;15.10;;
19111;SDS011;9688;51.906;8.376;2022-12-10T16:22:12;22.13;;;13.50;;
19111;SDS011;9688;51.906;8.376;2022-12-10T16:24:58;23.40;;;13.77;;
19111;SDS011;9688;51.906;8.376;2022-12-10T16:27:46;25.47;;;14.87;;
19111;SDS011;9688;51.906;8.376;2022-12-10T16:30:36;22.93;;;13.17;;
19111;SDS011;9688;51.906;8.376;2022-12-10T16:33:25;28.23;;;15.97;;
19111;SDS011;9688;51.906;8.376;2022-12-10T16:36:11;29.93;;;15.07;;
19111;SDS011;9688;51.906;8.376;2022-12-10T16:38:57;26.57;;;14.17;;
19111;SDS011;9688;51.906;8.376;2022-12-10T16:41:44;29.87;;;16.17;;
19111;SDS011;9688;51.906;8.376;2022-12-10T16:44:38;29.33;;;14.90;;
19111;SDS011;9688;51.906;8.376;2022-12-10T16:47:24;30.27;;;16.10;;
19111;SDS011;9688;51.906;8.376;2022-12-10T16:50:12;32.27;;;16.40;;
19111;SDS011;9688;51.906;8.376;2022-12-10T16:53:01;27.43;;;15.27;;